Time;durP1;ratioP1;P1;durP2;ratioP2;P2;SDS_P1;SDS_P2;PMS_P1;PMS_P2;Temp;Humidity;BMP_temperature;BMP_pressure;BME280_temperature;BME280_humidity;BME280_pressure;Samples;Min_cycle;Max_cycle;Signal;HPM_P1;HPM_P2
2021/03/27 00:01:00;;;;;;;187.30;59.45;;;4.90;99.90;;;;;;4891889;28;20082;-83
2021/03/27 00:03:27;;;;;;;168.80;53.97;;;4.80;99.90;;;;;;4908897;28;20140;-83
2021/03/27 00:05:59;;;;;;;188.68;59.03;;;4.70;99.90;;;;;;4904489;28;20084;-83
2021/03/27 00:08:32;;;;;;;181.57;59.83;;;4.70;99.90;;;;;;4878419;28;87483;-80
2021/03/27 00:11:00;;;;;;;168.20;54.17;;;4.70;99.90;;;;;;4880193;28;20507;-83
2021/03/27 00:13:32;;;;;;;175.73;57.05;;;4.60;99.90;;;;;;4880519;28;20130;-83
2021/03/27 00:16:05;;;;;;;180.13;59.72;;;4.70;99.90;;;;;;4893268;28;20084;-83
2021/03/27 00:18:36;;;;;;;189.02;60.38;;;4.80;99.90;;;;;;4894584;28;20161;-82
2021/03/27 00:21:04;;;;;;;199.55;65.95;;;4.70;99.90;;;;;;4895817;28;20099;-85
2021/03/27 00:23:33;;;;;;;174.13;55.28;;;4.80;99.90;;;;;;4896301;28;20170;-83
2021/03/27 00:26:09;;;;;;;207.32;66.90;;;4.80;99.90;;;;;;4900577;28;20407;-82
2021/03/27 00:28:41;;;;;;;178.40;57.13;;;4.70;99.90;;;;;;4886674;28;20140;-82
2021/03/27 00:31:15;;;;;;;176.60;58.45;;;4.60;99.90;;;;;;4909829;28;20510;-82
2021/03/27 00:33:52;;;;;;;161.20;51.88;;;4.60;99.90;;;;;;4880380;28;20125;-83
2021/03/27 00:36:21;;;;;;;167.05;55.08;;;4.60;99.90;;;;;;4894252;28;20487;-82
2021/03/27 00:38:50;;;;;;;175.63;57.75;;;4.60;99.90;;;;;;4895346;28;20094;-81
2021/03/27 00:41:20;;;;;;;215.98;67.57;;;4.70;99.90;;;;;;4902234;28;20166;-82
2021/03/27 00:43:47;;;;;;;197.30;68.70;;;4.70;99.90;;;;;;4899329;28;20530;-82
2021/03/27 00:46:14;;;;;;;274.15;90.45;;;4.80;99.90;;;;;;4893484;28;20092;-83
2021/03/27 00:48:41;;;;;;;274.52;90.60;;;5.00;99.90;;;;;;4886300;28;20094;-83
2021/03/27 00:51:08;;;;;;;209.40;63.85;;;5.10;99.90;;;;;;4901102;28;20083;-82
2021/03/27 00:53:36;;;;;;;202.85;64.38;;;4.90;99.90;;;;;;4892509;28;20094;-84
2021/03/27 00:56:04;;;;;;;196.20;58.78;;;4.80;99.90;;;;;;4885151;28;20100;-82
2021/03/27 00:58:34;;;;;;;203.57;62.60;;;4.80;99.90;;;;;;4896408;28;20083;-81
2021/03/27 01:01:01;;;;;;;180.80;56.75;;;4.70;99.90;;;;;;4904299;28;20091;-82
2021/03/27 01:03:29;;;;;;;241.77;74.25;;;4.70;99.90;;;;;;4895050;28;20090;-82
2021/03/27 01:06:00;;;;;;;216.60;69.03;;;4.90;99.90;;;;;;4883974;28;20145;-82
2021/03/27 01:08:26;;;;;;;190.63;57.85;;;4.90;99.90;;;;;;4890150;28;20083;-83
2021/03/27 01:10:51;;;;;;;;;;;4.80;99.90;;;;;;4909705;28;20453;-82
2021/03/27 01:13:19;;;;;;;193.98;59.13;;;4.70;99.90;;;;;;4909446;28;20337;-80
2021/03/27 01:15:51;;;;;;;170.57;56.20;;;4.70;99.90;;;;;;4909633;28;20082;-83
2021/03/27 01:18:30;;;;;;;160.43;53.00;;;4.60;99.90;;;;;;4901749;28;20156;-82
2021/03/27 01:20:59;;;;;;;155.32;53.25;;;4.60;99.90;;;;;;4893159;28;20086;-84
2021/03/27 01:23:22;;;;;;;166.48;54.13;;;4.60;99.90;;;;;;4891412;28;20091;-81
2021/03/27 01:25:51;;;;;;;156.25;51.22;;;4.70;99.90;;;;;;4897697;28;20094;-82
2021/03/27 01:28:25;;;;;;;163.45;51.70;;;4.60;99.90;;;;;;4894873;28;20549;-81
2021/03/27 01:31:01;;;;;;;165.75;51.53;;;4.60;99.90;;;;;;4903308;28;20121;-82
2021/03/27 01:33:28;;;;;;;153.00;50.20;;;4.50;99.90;;;;;;4905319;28;20517;-83
2021/03/27 01:36:03;;;;;;;151.90;52.25;;;4.50;99.90;;;;;;4906005;28;20129;-81
2021/03/27 01:38:36;;;;;;;168.70;52.42;;;4.40;99.90;;;;;;4889421;28;20141;-83
2021/03/27 01:41:15;;;;;;;168.32;54.17;;;4.30;99.90;;;;;;4895322;28;20091;-82
2021/03/27 01:43:48;;;;;;;159.13;49.83;;;4.30;99.90;;;;;;4897542;28;20110;-82
2021/03/27 01:46:35;;;;;;;159.77;50.15;;;4.20;99.90;;;;;;4906501;28;20083;-83
2021/03/27 01:49:07;;;;;;;152.80;49.80;;;4.10;99.90;;;;;;4887701;28;20091;-79
2021/03/27 01:52:05;;;;;;;157.38;49.50;;;4.10;99.90;;;;;;4904958;28;20087;-78
2021/03/27 01:54:35;;;;;;;167.05;49.30;;;4.10;99.90;;;;;;4880436;28;20079;-82
2021/03/27 01:57:23;;;;;;;166.98;51.28;;;4.10;99.90;;;;;;4897321;28;20091;-82
2021/03/27 01:59:50;;;;;;;168.00;50.53;;;4.10;99.90;;;;;;4896558;28;20508;-81
2021/03/27 02:02:21;;;;;;;171.57;50.40;;;4.20;99.90;;;;;;4878093;28;20084;-81
2021/03/27 02:04:49;;;;;;;152.75;50.45;;;4.20;99.90;;;;;;4908697;28;20136;-83
2021/03/27 02:07:19;;;;;;;167.95;52.15;;;4.10;99.90;;;;;;4907092;28;20103;-79
2021/03/27 02:09:49;;;;;;;155.40;51.00;;;4.10;99.90;;;;;;4903222;28;20083;-83
2021/03/27 02:12:25;;;;;;;175.32;52.67;;;4.10;99.90;;;;;;4904416;28;20075;-82
2021/03/27 02:14:53;;;;;;;158.80;52.05;;;4.00;99.90;;;;;;4890199;28;20410;-83
2021/03/27 02:17:21;;;;;;;170.32;53.05;;;4.10;99.90;;;;;;4896753;28;20087;-82
2021/03/27 02:20:16;;;;;;;161.18;52.30;;;4.10;99.90;;;;;;4908410;28;20087;-83
2021/03/27 02:22:47;;;;;;;167.77;50.78;;;4.10;99.90;;;;;;4892725;28;20084;-80
2021/03/27 02:25:42;;;;;;;159.98;52.13;;;4.30;99.90;;;;;;4898099;28;20093;-82
2021/03/27 02:28:16;;;;;;;180.10;55.28;;;4.40;99.90;;;;;;4882209;28;21955;-80
2021/03/27 02:30:46;;;;;;;180.88;57.92;;;4.50;99.90;;;;;;4905240;28;20141;-82
2021/03/27 02:33:22;;;;;;;184.35;56.97;;;4.60;99.90;;;;;;4904832;28;20089;-81
2021/03/27 02:36:03;;;;;;;190.15;58.17;;;4.60;99.90;;;;;;4902989;28;20086;-82
2021/03/27 02:38:34;;;;;;;189.05;55.25;;;4.60;99.90;;;;;;4901166;28;20086;-83
2021/03/27 02:41:22;;;;;;;209.65;59.45;;;4.60;99.90;;;;;;4908357;28;20097;-83
2021/03/27 02:43:55;;;;;;;193.07;58.92;;;4.60;99.90;;;;;;4877051;28;20080;-83
2021/03/27 02:46:30;;;;;;;219.30;62.85;;;4.70;99.90;;;;;;4880979;28;20091;-79
2021/03/27 02:49:00;;;;;;;224.07;64.20;;;4.80;99.90;;;;;;4896795;28;20855;-82
2021/03/27 02:51:27;;;;;;;230.00;65.15;;;4.90;99.90;;;;;;4886062;28;20079;-82
2021/03/27 02:54:06;;;;;;;229.90;64.88;;;5.00;99.90;;;;;;4904509;28;20144;-80
2021/03/27 02:56:39;;;;;;;227.40;65.03;;;5.00;99.90;;;;;;4872476;28;20509;-81
2021/03/27 02:59:35;;;;;;;202.98;60.60;;;5.00;99.90;;;;;;4885966;28;20162;-83
2021/03/27 03:02:07;;;;;;;206.90;61.70;;;4.90;99.90;;;;;;4890927;28;20091;-83
2021/03/27 03:04:45;;;;;;;215.75;63.42;;;4.80;99.90;;;;;;4893062;28;20103;-82
2021/03/27 03:07:26;;;;;;;211.38;63.13;;;4.90;99.90;;;;;;4892915;28;20095;-83
2021/03/27 03:09:53;;;;;;;206.10;64.50;;;4.90;99.90;;;;;;4890246;28;20547;-83
2021/03/27 03:12:21;;;;;;;210.13;63.10;;;5.00;99.90;;;;;;4895981;28;20098;-78
2021/03/27 03:14:54;;;;;;;201.52;63.35;;;4.90;99.90;;;;;;4904040;28;20143;-82
2021/03/27 03:17:24;;;;;;;188.30;57.97;;;4.80;99.90;;;;;;4903371;28;20087;-83
2021/03/27 03:19:59;;;;;;;180.13;56.95;;;4.70;99.90;;;;;;4907161;28;20110;-80
2021/03/27 03:22:38;;;;;;;171.75;55.67;;;4.60;99.90;;;;;;4890775;28;20094;-82
2021/03/27 03:25:06;;;;;;;190.68;58.13;;;4.80;99.90;;;;;;4892247;28;20083;-82
2021/03/27 03:27:41;;;;;;;176.57;56.28;;;4.90;99.90;;;;;;4895069;28;20087;-79
2021/03/27 03:30:25;;;;;;;168.73;56.27;;;5.00;99.90;;;;;;4894568;28;20484;-83
2021/03/27 03:33:10;;;;;;;189.38;61.47;;;5.10;99.90;;;;;;4891424;28;20149;-82
2021/03/27 03:35:48;;;;;;;184.45;57.75;;;5.30;99.90;;;;;;4881860;28;20087;-82
2021/03/27 03:38:26;;;;;;;209.50;63.50;;;5.40;99.90;;;;;;4900484;28;20090;-83
2021/03/27 03:41:12;;;;;;;189.40;62.58;;;5.50;99.90;;;;;;4900324;28;20530;-83
2021/03/27 03:43:39;;;;;;;219.10;65.17;;;5.60;99.90;;;;;;4897734;28;20149;-80
2021/03/27 03:46:30;;;;;;;214.52;63.47;;;5.80;99.90;;;;;;4893188;28;20497;-81
2021/03/27 03:49:29;;;;;;;181.98;59.60;;;5.90;99.90;;;;;;4869056;28;20095;-83
2021/03/27 03:52:08;;;;;;;185.45;58.92;;;7.30;99.90;;;;;;4879953;28;20083;-78
2021/03/27 03:54:44;;;;;;;194.73;60.50;;;6.00;99.90;;;;;;4897124;28;20136;-83
2021/03/27 03:57:11;;;;;;;;;;;6.00;99.90;;;;;;4875364;28;20105;-82
2021/03/27 03:59:41;;;;;;;;;;;6.20;99.90;;;;;;4900459;28;20006;-81
2021/03/27 04:02:15;;;;;;;172.40;55.55;;;6.10;99.90;;;;;;4881376;28;20677;-82
2021/03/27 04:04:47;;;;;;;167.48;54.85;;;6.10;99.90;;;;;;4880266;28;20084;-82
2021/03/27 04:07:26;;;;;;;143.43;50.58;;;6.20;99.90;;;;;;4880526;28;20095;-82
2021/03/27 04:09:54;;;;;;;156.68;54.08;;;6.20;99.90;;;;;;4893496;28;20083;-82
2021/03/27 04:12:26;;;;;;;149.82;49.28;;;6.20;99.90;;;;;;4902689;28;20094;-82
2021/03/27 04:15:15;;;;;;;135.55;49.55;;;6.20;99.90;;;;;;4893927;28;20093;-82
2021/03/27 04:17:51;;;;;;;130.27;48.47;;;6.20;99.90;;;;;;4902642;28;23557;-82
2021/03/27 04:20:24;;;;;;;136.45;47.60;;;6.30;99.90;;;;;;4905552;28;20498;-81
2021/03/27 04:22:55;;;;;;;127.78;47.95;;;6.40;99.90;;;;;;4906072;28;20083;-83
2021/03/27 04:25:32;;;;;;;121.00;44.78;;;6.40;99.90;;;;;;4910347;28;20087;-84
2021/03/27 04:28:04;;;;;;;118.15;45.40;;;6.40;99.90;;;;;;4902090;28;20085;-82
2021/03/27 04:30:45;;;;;;;128.00;46.45;;;6.40;99.90;;;;;;4904283;28;20091;-82
2021/03/27 04:33:20;;;;;;;114.03;44.35;;;6.30;99.90;;;;;;4895886;28;20085;-82
2021/03/27 04:35:58;;;;;;;113.45;43.00;;;6.20;99.90;;;;;;4906106;28;20517;-82
2021/03/27 04:38:30;;;;;;;109.82;42.88;;;6.20;99.90;;;;;;4904523;28;20086;-83
2021/03/27 04:40:57;;;;;;;102.95;42.50;;;6.10;99.90;;;;;;4900815;28;20087;-82
2021/03/27 04:43:27;;;;;;;104.75;43.13;;;6.00;99.90;;;;;;4902906;28;20131;-83
2021/03/27 04:45:55;;;;;;;111.20;43.00;;;5.80;99.90;;;;;;4903172;28;20480;-83
2021/03/27 04:48:29;;;;;;;118.07;42.15;;;5.70;99.90;;;;;;4907571;28;20079;-83
2021/03/27 04:51:33;;;;;;;109.13;43.30;;;5.90;99.90;;;;;;4906477;28;20095;-82
2021/03/27 04:54:04;;;;;;;121.13;43.42;;;5.90;99.90;;;;;;4895373;28;20087;-83
2021/03/27 04:56:35;;;;;;;128.65;46.47;;;5.90;99.90;;;;;;4909566;28;20095;-83
2021/03/27 04:59:05;;;;;;;119.55;42.28;;;5.80;99.90;;;;;;4897669;28;20442;-82
2021/03/27 05:01:45;;;;;;;118.25;43.33;;;5.70;99.90;;;;;;4893132;28;20105;-82
2021/03/27 05:04:15;;;;;;;107.03;39.22;;;5.60;99.90;;;;;;4890287;28;20083;-83
2021/03/27 05:06:49;;;;;;;109.28;42.30;;;5.70;99.90;;;;;;4892136;28;20084;-84
2021/03/27 05:09:34;;;;;;;100.03;39.83;;;5.80;99.90;;;;;;4905939;28;20086;-82
2021/03/27 05:12:01;;;;;;;105.95;39.05;;;5.90;99.90;;;;;;4891324;28;20090;-82
2021/03/27 05:14:46;;;;;;;105.72;39.38;;;6.00;99.90;;;;;;4890779;28;20087;-83
2021/03/27 05:17:19;;;;;;;103.13;41.08;;;6.10;99.90;;;;;;4903995;28;20082;-81
2021/03/27 05:19:51;;;;;;;102.38;40.30;;;6.10;99.90;;;;;;4905761;28;20094;-83
2021/03/27 05:22:43;;;;;;;100.78;39.15;;;6.10;99.90;;;;;;4894956;28;20078;-83
2021/03/27 05:25:32;;;;;;;99.15;37.08;;;6.10;99.90;;;;;;4884106;28;20083;-81
2021/03/27 05:28:07;;;;;;;97.13;38.08;;;6.00;99.90;;;;;;4885426;28;20083;-82
2021/03/27 05:30:44;;;;;;;100.28;36.78;;;6.00;99.90;;;;;;4899809;28;20088;-80
2021/03/27 05:33:32;;;;;;;89.15;35.15;;;6.00;99.90;;;;;;4899059;28;20164;-82
2021/03/27 05:36:27;;;;;;;97.03;35.80;;;6.00;99.90;;;;;;4890575;28;20090;-83
2021/03/27 05:38:57;;;;;;;87.68;34.83;;;6.00;99.90;;;;;;4892277;28;20132;-83
2021/03/27 05:41:39;;;;;;;92.82;35.55;;;6.00;99.90;;;;;;4888457;28;20391;-83
2021/03/27 05:44:38;;;;;;;98.50;37.30;;;6.00;99.90;;;;;;4906096;28;20144;-83
2021/03/27 05:47:40;;;;;;;84.82;34.15;;;6.00;99.90;;;;;;4888597;28;20087;-82
2021/03/27 05:50:31;;;;;;;89.15;34.25;;;6.10;99.90;;;;;;4902700;28;20085;-83
2021/03/27 05:53:31;;;;;;;87.60;32.83;;;6.10;99.90;;;;;;4891888;28;20101;-83
2021/03/27 05:56:12;;;;;;;89.63;35.47;;;6.10;99.90;;;;;;4866730;28;20084;-83
2021/03/27 05:59:01;;;;;;;100.88;36.60;;;6.20;99.90;;;;;;4886890;28;20086;-83
2021/03/27 06:01:44;;;;;;;100.22;35.63;;;6.40;99.90;;;;;;4903905;28;20623;-83
2021/03/27 06:04:26;;;;;;;83.55;35.22;;;6.80;99.90;;;;;;4898477;28;20437;-83
2021/03/27 06:07:10;;;;;;;79.30;33.72;;;7.50;99.90;;;;;;4904240;28;20154;-83
2021/03/27 06:10:08;;;;;;;75.47;30.85;;;8.10;99.90;;;;;;4904280;28;20515;-83
2021/03/27 06:13:10;;;;;;;67.22;28.48;;;8.30;99.90;;;;;;4880190;28;20569;-83
2021/03/27 06:16:04;;;;;;;68.28;25.42;;;9.00;99.90;;;;;;4899730;28;20088;-82
2021/03/27 06:19:10;;;;;;;65.20;24.90;;;9.20;99.90;;;;;;4900616;28;20083;-83
2021/03/27 06:21:46;;;;;;;56.88;25.15;;;9.30;99.90;;;;;;4903480;28;20079;-82
2021/03/27 06:24:40;;;;;;;56.10;24.85;;;9.30;99.90;;;;;;4902340;28;20110;-82
2021/03/27 06:27:34;;;;;;;51.97;24.50;;;9.30;99.90;;;;;;4903813;28;20443;-83
2021/03/27 06:30:22;;;;;;;56.58;24.73;;;9.30;99.90;;;;;;4895279;28;20437;-83
2021/03/27 06:33:19;;;;;;;58.33;24.77;;;9.20;99.90;;;;;;4887244;28;20159;-83
2021/03/27 06:36:20;;;;;;;64.20;24.58;;;9.40;99.90;;;;;;4879638;28;20092;-82
2021/03/27 06:39:24;;;;;;;54.90;25.17;;;9.80;99.90;;;;;;4851214;28;20099;-83
2021/03/27 06:42:26;;;;;;;57.22;24.90;;;10.10;99.90;;;;;;4863391;28;20141;-82
2021/03/27 06:45:45;;;;;;;56.15;24.67;;;10.60;99.90;;;;;;4892311;28;20095;-82
2021/03/27 06:48:51;;;;;;;53.83;23.85;;;11.80;99.90;;;;;;4904708;28;20218;-84
2021/03/27 06:51:40;;;;;;;44.58;22.25;;;13.30;99.90;;;;;;4904740;28;20078;-83
2021/03/27 06:54:38;;;;;;;47.58;21.60;;;14.40;99.90;;;;;;4876192;28;20057;-84
2021/03/27 06:57:17;;;;;;;42.90;21.30;;;15.20;99.90;;;;;;4872580;28;20052;-84
2021/03/27 07:00:28;;;;;;;41.63;20.77;;;15.40;99.90;;;;;;4888141;28;20041;-85
2021/03/27 07:03:23;;;;;;;42.55;22.23;;;15.30;99.90;;;;;;4898803;28;20052;-83
2021/03/27 07:06:03;;;;;;;40.40;20.95;;;15.10;99.90;;;;;;4901182;28;20117;-81
2021/03/27 07:08:55;;;;;;;45.00;22.65;;;14.90;99.90;;;;;;4901334;28;20060;-83
2021/03/27 07:11:43;;;;;;;42.10;21.08;;;14.90;99.90;;;;;;4891234;28;20059;-81
2021/03/27 07:14:47;;;;;;;44.30;21.45;;;14.80;99.90;;;;;;4889291;28;20056;-81
2021/03/27 07:17:28;;;;;;;46.08;21.48;;;14.30;99.90;;;;;;4905040;28;20040;-83
2021/03/27 07:20:45;;;;;;;49.08;21.67;;;13.70;99.90;;;;;;4905245;28;20048;-83
2021/03/27 07:24:00;;;;;;;47.78;23.02;;;12.40;99.90;;;;;;4894887;28;20134;-82
2021/03/27 07:27:03;;;;;;;44.92;21.58;;;11.40;99.90;;;;;;4806404;28;20505;-84
2021/03/27 07:29:53;;;;;;;45.53;21.75;;;10.70;99.90;;;;;;4810287;28;20126;-82
2021/03/27 07:32:34;;;;;;;53.63;23.73;;;10.40;99.90;;;;;;4808853;28;20090;-81
2021/03/27 07:35:20;;;;;;;51.97;22.25;;;10.20;99.90;;;;;;4788672;28;20086;-85
2021/03/27 07:38:07;;;;;;;49.75;22.70;;;10.00;99.90;;;;;;4848555;28;20081;-83
2021/03/27 07:40:43;;;;;;;43.15;19.83;;;10.50;99.90;;;;;;4895088;28;20587;-85
2021/03/27 07:43:22;;;;;;;;;;;10.80;99.90;;;;;;4893313;28;20129;-82
2021/03/27 07:46:23;;;;;;;41.17;18.85;;;12.30;99.90;;;;;;4896232;28;19960;-85
2021/03/27 07:49:27;;;;;;;40.58;18.08;;;12.60;99.90;;;;;;4827285;28;20079;-86
2021/03/27 07:52:07;;;;;;;42.55;17.45;;;11.90;99.90;;;;;;4810874;28;20082;-85
2021/03/27 07:54:53;;;;;;;34.83;16.35;;;11.50;99.90;;;;;;4884576;28;20578;-83
2021/03/27 07:57:30;;;;;;;31.60;15.48;;;11.50;99.90;;;;;;4892828;28;20136;-82
2021/03/27 08:00:13;;;;;;;36.90;16.40;;;11.60;99.90;;;;;;4865539;28;20100;-85
2021/03/27 08:03:06;;;;;;;33.08;15.10;;;11.50;99.90;;;;;;4881974;28;20084;-83
2021/03/27 08:06:03;;;;;;;34.13;15.95;;;11.20;99.90;;;;;;4894723;28;20089;-86
2021/03/27 08:08:59;;;;;;;36.45;15.30;;;10.90;99.90;;;;;;4889158;28;20088;-86
2021/03/27 08:11:34;;;;;;;35.63;14.18;;;10.70;99.90;;;;;;4814625;28;20102;-87
2021/03/27 08:14:12;;;;;;;27.55;13.02;;;10.40;99.90;;;;;;4906517;28;20174;-84
2021/03/27 08:16:50;;;;;;;25.58;12.52;;;10.20;99.90;;;;;;4887193;28;20164;-86
2021/03/27 08:19:47;;;;;;;24.98;12.05;;;10.10;99.90;;;;;;4899333;28;20095;-83
2021/03/27 08:22:42;;;;;;;39.85;13.05;;;9.80;99.90;;;;;;4888164;28;20099;-85
2021/03/27 08:25:15;;;;;;;23.95;11.48;;;9.60;99.90;;;;;;4874530;28;20081;-80
2021/03/27 08:28:11;;;;;;;27.58;13.15;;;9.50;99.90;;;;;;4890076;28;20447;-84
2021/03/27 08:31:15;;;;;;;26.10;11.75;;;9.30;99.90;;;;;;4878339;28;20076;-85
2021/03/27 08:34:22;;;;;;;23.00;10.02;;;9.20;99.90;;;;;;4904058;28;20547;-83
2021/03/27 08:37:26;;;;;;;22.50;8.40;;;9.00;99.90;;;;;;4909080;28;20478;-85
2021/03/27 08:40:27;;;;;;;16.38;7.70;;;9.00;99.90;;;;;;4832786;28;20086;-85
2021/03/27 08:43:37;;;;;;;19.35;8.60;;;8.90;99.90;;;;;;4831900;28;20132;-81
2021/03/27 08:46:25;;;;;;;12.55;6.72;;;8.80;99.90;;;;;;4900537;28;20097;-85
2021/03/27 08:49:07;;;;;;;16.02;8.00;;;8.60;99.90;;;;;;4884647;28;20534;-85
2021/03/27 08:51:36;;;;;;;14.50;7.53;;;8.50;99.90;;;;;;4887985;28;20142;-85
2021/03/27 08:54:25;;;;;;;14.48;7.60;;;8.40;99.90;;;;;;4889121;28;20089;-87
2021/03/27 08:57:23;;;;;;;14.57;8.25;;;8.30;99.90;;;;;;4899804;28;20507;-85
2021/03/27 09:00:17;;;;;;;14.82;7.25;;;8.20;99.90;;;;;;4873832;28;20089;-85
2021/03/27 09:02:53;;;;;;;12.50;5.53;;;7.90;99.90;;;;;;4860504;28;20082;-80
2021/03/27 09:05:48;;;;;;;9.93;4.20;;;7.70;99.90;;;;;;4875812;28;21430;-84
2021/03/27 09:08:41;;;;;;;6.28;2.90;;;7.50;99.90;;;;;;4840994;28;20132;-82
2021/03/27 09:11:30;;;;;;;1.67;0.85;;;7.20;99.90;;;;;;4849117;28;20087;-85
2021/03/27 09:14:46;;;;;;;2.92;1.00;;;7.00;99.90;;;;;;4840217;28;20095;-83
2021/03/27 09:21:41;;;;;;;4.53;0.50;;;7.00;99.90;;;;;;4828397;28;20094;-84
2021/03/27 09:24:53;;;;;;;0.98;0.50;;;7.10;99.90;;;;;;4847305;28;20473;-86
2021/03/27 09:28:15;;;;;;;0.50;0.50;;;7.10;99.90;;;;;;4881940;28;20085;-83
2021/03/27 09:31:11;;;;;;;1.77;0.52;;;7.10;99.90;;;;;;4836667;28;20086;-83
2021/03/27 09:37:34;;;;;;;0.93;0.73;;;7.30;99.90;;;;;;4867114;28;20086;-83
2021/03/27 09:46:56;;;;;;;0.68;0.52;;;7.30;99.90;;;;;;4838282;28;20537;-85
2021/03/27 09:53:31;;;;;;;2.03;0.73;;;7.10;99.90;;;;;;4838978;28;20095;-87
2021/03/27 10:06:52;;;;;;;1.30;0.85;;;6.90;99.90;;;;;;4838192;28;20078;-84
2021/03/27 10:16:22;;;;;;;1.40;1.00;;;6.80;99.90;;;;;;4834517;28;20538;-83
2021/03/27 10:22:40;;;;;;;2.10;1.23;;;6.90;99.90;;;;;;4836612;28;20089;-82
2021/03/27 10:32:24;;;;;;;2.83;1.67;;;7.10;99.90;;;;;;4838917;28;20113;-82
2021/03/27 10:34:55;;;;;;;3.88;1.80;;;7.10;99.90;;;;;;4850083;28;20090;-84
2021/03/27 10:38:03;;;;;;;3.10;1.98;;;7.20;99.90;;;;;;4844007;28;20082;-85
2021/03/27 10:44:37;;;;;;;4.82;2.78;;;7.20;99.90;;;;;;4831820;28;20098;-85
2021/03/27 10:50:28;;;;;;;5.78;3.42;;;7.10;99.90;;;;;;4839793;28;20088;-83
2021/03/27 10:57:01;;;;;;;6.30;3.10;;;6.90;99.90;;;;;;4849962;28;20079;-86
2021/03/27 10:59:38;;;;;;;5.30;2.47;;;6.80;99.90;;;;;;4866727;28;20098;-85
2021/03/27 11:02:29;;;;;;;4.90;2.67;;;6.80;99.90;;;;;;4891722;28;20485;-82
2021/03/27 11:05:19;;;;;;;3.97;2.13;;;6.70;99.90;;;;;;4902685;28;20517;-87
2021/03/27 11:08:19;;;;;;;2.17;1.63;;;6.70;99.90;;;;;;4893755;28;20181;-84
2021/03/27 11:11:32;;;;;;;3.58;1.98;;;6.60;99.90;;;;;;4901846;28;20090;-85
2021/03/27 11:14:27;;;;;;;3.63;2.03;;;6.70;99.90;;;;;;4890140;28;20345;-90
2021/03/27 11:17:24;;;;;;;4.40;2.20;;;6.90;99.90;;;;;;4896937;28;20083;-88
2021/03/27 11:20:26;;;;;;;3.22;1.60;;;6.90;99.90;;;;;;4900079;28;20097;-88
2021/03/27 11:23:34;;;;;;;4.10;1.23;;;6.90;99.90;;;;;;4908761;28;20144;-87
2021/03/27 11:26:45;;;;;;;2.65;1.27;;;7.00;99.90;;;;;;4801728;28;20101;-88
2021/03/27 11:29:28;;;;;;;2.22;1.23;;;7.00;99.90;;;;;;4884098;28;20077;-88
2021/03/27 11:32:17;;;;;;;2.80;1.50;;;7.00;99.90;;;;;;4885993;28;20084;-88
2021/03/27 11:34:45;;;;;;;2.88;1.60;;;7.20;99.90;;;;;;4891327;28;20135;-87
2021/03/27 11:37:56;;;;;;;2.60;1.42;;;7.30;99.90;;;;;;4893779;28;20093;-84
2021/03/27 11:40:43;;;;;;;3.33;1.92;;;7.70;99.90;;;;;;4892763;28;20171;-89
2021/03/27 11:43:46;;;;;;;7.13;1.80;;;8.10;99.90;;;;;;4906968;28;20077;-87
2021/03/27 11:46:18;;;;;;;5.00;1.80;;;8.60;99.90;;;;;;4884240;28;20091;-88
2021/03/27 11:48:50;;;;;;;3.45;1.58;;;8.90;99.90;;;;;;4894513;28;20150;-87
2021/03/27 11:51:38;;;;;;;4.05;1.88;;;8.90;99.90;;;;;;4851141;28;20226;-82
2021/03/27 11:54:22;;;;;;;3.47;2.13;;;8.70;99.90;;;;;;4900610;28;20084;-81
2021/03/27 11:56:52;;;;;;;3.65;1.92;;;8.50;99.90;;;;;;4902601;28;20089;-84
2021/03/27 12:02:44;;;;;;;4.55;2.13;;;8.00;99.90;;;;;;4868793;28;20458;-83
2021/03/27 12:05:13;;;;;;;4.53;2.20;;;8.10;99.90;;;;;;4901033;28;20096;-83
2021/03/27 12:07:40;;;;;;;8.23;2.65;;;8.10;99.90;;;;;;4898587;28;20582;-84
2021/03/27 12:10:19;;;;;;;3.63;2.30;;;8.20;99.90;;;;;;4878076;28;20142;-86
2021/03/27 12:12:52;;;;;;;8.18;2.13;;;8.40;99.90;;;;;;4891369;28;20092;-88
2021/03/27 12:15:29;;;;;;;4.55;2.28;;;8.40;99.90;;;;;;4896433;28;20085;-83
2021/03/27 12:18:04;;;;;;;4.85;2.22;;;8.30;99.90;;;;;;4898186;28;20150;-85
2021/03/27 12:20:34;;;;;;;5.93;2.33;;;8.40;99.90;;;;;;4890348;28;20533;-83
2021/03/27 12:23:03;;;;;;;3.35;2.00;;;8.40;99.90;;;;;;4903151;28;20537;-82
2021/03/27 12:25:42;;;;;;;8.70;2.60;;;8.50;99.90;;;;;;4901112;28;20121;-83
2021/03/27 12:28:14;;;;;;;6.45;2.40;;;8.80;99.90;;;;;;4908832;28;20126;-85
2021/03/27 12:30:47;;;;;;;9.30;2.40;;;9.10;99.90;;;;;;4903433;28;20080;-85
2021/03/27 12:33:14;;;;;;;8.73;2.70;;;9.30;99.90;;;;;;4886662;28;20133;-83
2021/03/27 12:35:44;;;;;;;6.15;2.60;;;9.20;99.90;;;;;;4882738;28;20085;-82
2021/03/27 12:38:21;;;;;;;10.88;3.17;;;9.10;99.90;;;;;;4907865;28;20081;-80
2021/03/27 12:40:52;;;;;;;9.65;2.90;;;9.10;99.90;;;;;;4902079;28;20550;-84
2021/03/27 12:43:18;;;;;;;6.53;2.45;;;9.30;99.90;;;;;;4909998;28;20539;-82
2021/03/27 12:45:41;;;;;;;;;;;9.40;99.90;;;;;;4897257;28;20891;-84
2021/03/27 12:48:23;;;;;;;8.05;2.53;;;9.80;99.90;;;;;;4883830;28;19991;-83
2021/03/27 12:51:01;;;;;;;10.93;2.78;;;10.10;99.90;;;;;;4899321;28;20096;-82
2021/03/27 12:54:06;;;;;;;8.18;2.53;;;9.90;99.90;;;;;;4909358;28;20076;-85
2021/03/27 12:56:48;;;;;;;7.95;2.42;;;10.00;99.90;;;;;;4885113;28;20127;-82
2021/03/27 12:59:16;;;;;;;4.53;2.30;;;10.00;99.90;;;;;;4898827;28;20088;-80
2021/03/27 13:01:53;;;;;;;5.53;2.13;;;9.80;99.90;;;;;;4900070;28;20095;-82
2021/03/27 13:04:59;;;;;;;5.57;2.40;;;9.80;99.90;;;;;;4899618;28;20085;-80
2021/03/27 13:07:28;;;;;;;6.90;2.83;;;9.80;99.90;;;;;;4896490;28;20440;-82
2021/03/27 13:10:10;;;;;;;5.45;2.63;;;9.90;99.90;;;;;;4900642;28;20107;-83
2021/03/27 13:12:42;;;;;;;4.50;2.00;;;9.90;99.90;;;;;;4907263;28;22577;-81
2021/03/27 13:15:26;;;;;;;5.43;2.22;;;10.00;99.90;;;;;;4883574;28;20081;-81
2021/03/27 13:18:29;;;;;;;6.50;2.50;;;10.10;99.90;;;;;;4906389;28;20511;-83
2021/03/27 13:21:00;;;;;;;8.20;2.08;;;9.80;99.90;;;;;;4884877;28;20080;-83
2021/03/27 13:23:26;;;;;;;9.82;2.72;;;9.40;99.90;;;;;;4897983;28;20107;-82
2021/03/27 13:25:53;;;;;;;8.38;2.70;;;9.20;99.90;;;;;;4883994;28;20084;-83
2021/03/27 13:28:22;;;;;;;6.00;2.75;;;9.10;99.90;;;;;;4888559;28;20097;-83
2021/03/27 13:30:49;;;;;;;11.82;2.67;;;9.10;99.90;;;;;;4886225;28;20143;-84
2021/03/27 13:33:23;;;;;;;9.27;2.70;;;9.10;99.90;;;;;;4886949;28;20560;-83
2021/03/27 13:36:14;;;;;;;4.88;2.20;;;8.90;99.90;;;;;;4892529;28;20097;-83
2021/03/27 13:38:42;;;;;;;7.70;2.10;;;8.80;99.90;;;;;;4891361;28;20088;-86
2021/03/27 13:41:16;;;;;;;13.82;2.78;;;8.70;99.90;;;;;;4898911;28;20431;-84
2021/03/27 13:43:48;;;;;;;5.45;2.42;;;8.60;99.90;;;;;;4894717;28;20079;-82
2021/03/27 13:46:19;;;;;;;7.72;2.72;;;8.50;99.90;;;;;;4884294;28;20532;-83
2021/03/27 13:48:52;;;;;;;6.93;3.22;;;8.30;99.90;;;;;;4898425;28;20088;-84
2021/03/27 13:51:24;;;;;;;5.38;2.70;;;7.90;99.90;;;;;;4900537;28;20074;-83
2021/03/27 13:54:12;;;;;;;5.10;1.95;;;7.40;99.90;;;;;;4903209;28;20449;-84
2021/03/27 13:56:43;;;;;;;6.18;2.38;;;6.90;99.90;;;;;;4895929;28;20114;-84
2021/03/27 13:59:25;;;;;;;6.93;2.28;;;6.70;99.90;;;;;;4897325;28;20183;-82
2021/03/27 14:02:07;;;;;;;5.72;2.08;;;6.60;99.90;;;;;;4901252;28;20087;-84
2021/03/27 14:04:35;;;;;;;4.88;2.78;;;6.60;99.90;;;;;;4882333;28;20456;-85
2021/03/27 14:07:03;;;;;;;9.00;2.55;;;6.60;99.90;;;;;;4908385;28;20145;-82
2021/03/27 14:09:52;;;;;;;6.03;2.35;;;6.70;99.90;;;;;;4889493;28;20087;-81
2021/03/27 14:12:23;;;;;;;4.45;2.03;;;6.80;99.90;;;;;;4909803;28;20090;-82
2021/03/27 14:15:14;;;;;;;5.53;2.33;;;6.90;99.90;;;;;;4909794;28;20087;-82
2021/03/27 14:17:44;;;;;;;5.35;2.00;;;7.00;99.90;;;;;;4913717;28;20087;-84
2021/03/27 14:20:36;;;;;;;4.18;1.73;;;7.10;99.90;;;;;;4909188;28;20118;-84
2021/03/27 14:23:44;;;;;;;3.55;1.38;;;7.30;99.90;;;;;;4906163;28;20594;-85
2021/03/27 14:26:21;;;;;;;3.90;1.80;;;7.40;99.90;;;;;;4877051;28;20133;-83
2021/03/27 14:29:05;;;;;;;4.43;2.17;;;7.50;99.90;;;;;;4883788;28;20082;-82
2021/03/27 14:31:43;;;;;;;3.90;1.63;;;7.80;99.90;;;;;;4894129;28;20086;-82
2021/03/27 14:34:42;;;;;;;10.25;2.58;;;8.10;99.90;;;;;;4890935;28;20088;-85
2021/03/27 14:37:28;;;;;;;7.28;2.63;;;8.20;99.90;;;;;;4875960;28;20094;-85
2021/03/27 14:40:06;;;;;;;8.45;2.35;;;8.00;99.90;;;;;;4905014;28;20461;-82
2021/03/27 14:42:44;;;;;;;3.55;1.70;;;6.90;99.90;;;;;;4903871;28;20109;-85
2021/03/27 14:45:18;;;;;;;2.58;1.63;;;6.30;99.90;;;;;;4899622;28;20548;-84
2021/03/27 14:48:02;;;;;;;3.05;1.60;;;6.30;99.90;;;;;;4912963;28;20484;-87
2021/03/27 14:50:29;;;;;;;1.98;1.42;;;6.00;99.90;;;;;;4875405;28;20106;-84
2021/03/27 14:53:05;;;;;;;4.32;1.40;;;5.80;99.90;;;;;;4898366;28;20190;-84